createdAt,value
2023-03-08T00:00:20.891Z,99908.56
2023-03-08T00:02:48.672Z,99909.44
2023-03-08T00:05:16.931Z,99906.78
2023-03-08T00:07:44.785Z,99904.94
2023-03-08T00:10:13.008Z,99909.34
2023-03-08T00:12:42.454Z,99913.69
2023-03-08T00:15:10.808Z,99916.34
2023-03-08T00:17:39.043Z,99912.84
2023-03-08T00:20:08.120Z,99908.41
2023-03-08T00:22:39.178Z,99907.56
2023-03-08T00:25:08.828Z,99907.56
2023-03-08T00:27:37.369Z,99911.97
2023-03-08T00:30:07.514Z,99911.06
2023-03-08T00:32:35.578Z,99907.56
2023-03-08T00:35:03.364Z,99909.34
2023-03-08T00:37:31.085Z,99908.41
2023-03-08T00:39:58.990Z,99906.59
2023-03-08T00:42:26.809Z,99908.41
2023-03-08T00:44:54.536Z,99904.00
2023-03-08T00:47:23.650Z,99899.63
2023-03-08T00:49:51.375Z,99894.38
2023-03-08T00:52:19.095Z,99897.91
2023-03-08T00:54:46.976Z,99898.81
2023-03-08T00:57:16.326Z,99897.91
2023-03-08T00:59:44.152Z,99900.53
2023-03-08T01:02:12.322Z,99897.13
2023-03-08T01:04:41.603Z,99901.56
2023-03-08T01:07:09.367Z,99896.25
2023-03-08T01:09:37.071Z,99893.59
2023-03-08T01:12:05.343Z,99887.47
2023-03-08T01:14:33.109Z,99884.81
2023-03-08T01:17:00.859Z,99886.59
2023-03-08T01:19:28.627Z,99882.19
2023-03-08T01:21:57.779Z,99886.59
2023-03-08T01:24:25.564Z,99885.69
2023-03-08T01:26:55.798Z,99871.63
2023-03-08T01:29:23.602Z,99877.81
2023-03-08T01:31:51.320Z,99868.13
2023-03-08T01:34:19.045Z,99871.69
2023-03-08T01:36:46.785Z,99857.59
2023-03-08T01:39:15.903Z,99868.16
2023-03-08T01:41:43.720Z,99862.03
2023-03-08T01:44:16.606Z,99856.75
2023-03-08T01:46:44.550Z,99849.75
2023-03-08T01:49:16.349Z,99846.22
2023-03-08T01:51:47.467Z,99840.94
2023-03-08T01:54:20.163Z,99829.50
2023-03-08T01:56:50.374Z,99829.50
2023-03-08T01:59:19.591Z,99823.34
2023-03-08T02:01:47.521Z,99826.00
2023-03-08T02:04:15.499Z,99817.22
2023-03-08T02:06:45.427Z,99808.41
2023-03-08T02:09:13.736Z,99802.25
2023-03-08T02:11:43.617Z,99799.59
2023-03-08T02:14:11.619Z,99804.88
2023-03-08T02:16:39.816Z,99792.56
2023-03-08T02:19:16.036Z,99792.56
2023-03-08T02:21:43.830Z,99782.91
2023-03-08T02:24:21.312Z,99782.91
2023-03-08T02:26:50.635Z,99786.41
2023-03-08T02:29:18.388Z,99788.19
2023-03-08T02:31:46.092Z,99783.75
2023-03-08T02:34:13.809Z,99786.41
2023-03-08T02:36:41.506Z,99788.19
2023-03-08T02:39:09.405Z,99790.84
2023-03-08T02:41:38.602Z,99795.25
2023-03-08T02:44:06.339Z,99785.56
2023-03-08T02:46:35.869Z,99782.06
2023-03-08T02:49:03.607Z,99770.63
2023-03-08T02:51:31.464Z,99769.72
2023-03-08T02:53:59.387Z,99765.34
2023-03-08T02:56:27.263Z,99768.84
2023-03-08T02:58:56.372Z,99762.72
2023-03-08T03:01:24.416Z,99772.41
2023-03-08T03:03:54.873Z,99773.28
2023-03-08T03:06:23.378Z,99770.66
2023-03-08T03:08:51.203Z,99760.06
2023-03-08T03:11:21.210Z,99753.94
2023-03-08T03:13:54.628Z,99758.34
2023-03-08T03:16:24.339Z,99761.84
2023-03-08T03:18:53.344Z,99761.00
2023-03-08T03:21:21.301Z,99751.28
2023-03-08T03:23:49.693Z,99760.09
2023-03-08T03:26:20.310Z,99746.00
2023-03-08T03:28:48.422Z,99745.13
2023-03-08T03:31:19.122Z,99744.25
2023-03-08T03:33:48.925Z,99746.88
2023-03-08T03:36:18.567Z,99746.00
2023-03-08T03:38:46.780Z,99742.50
2023-03-08T03:41:17.360Z,99742.50
2023-03-08T03:43:45.454Z,99736.34
2023-03-08T03:46:16.109Z,99733.72
2023-03-08T03:48:44.658Z,99719.59
2023-03-08T03:51:15.775Z,99726.66
2023-03-08T03:53:43.715Z,99721.38
2023-03-08T03:56:14.591Z,99730.19
2023-03-08T03:58:43.020Z,99726.66
2023-03-08T04:01:11.596Z,99718.72
2023-03-08T04:03:39.630Z,99709.94
2023-03-08T04:06:08.956Z,99696.72
2023-03-08T04:08:42.190Z,99690.56
2023-03-08T04:11:10.994Z,99687.94
2023-03-08T04:13:38.798Z,99692.31
2023-03-08T04:16:11.426Z,99688.78
2023-03-08T04:18:39.258Z,99687.03
2023-03-08T04:21:07.829Z,99678.22
2023-03-08T04:23:36.006Z,99681.75
2023-03-08T04:26:06.063Z,99680.88
2023-03-08T04:28:34.803Z,99675.59
2023-03-08T04:31:12.895Z,99665.88
2023-03-08T04:33:40.767Z,99674.72
2023-03-08T04:36:09.132Z,99672.06
2023-03-08T04:38:37.020Z,99662.38
2023-03-08T04:41:11.728Z,99661.50
2023-03-08T04:43:40.096Z,99651.81
2023-03-08T04:46:08.729Z,99654.44
2023-03-08T04:48:36.745Z,99654.44
2023-03-08T04:51:07.188Z,99640.38
2023-03-08T04:53:35.435Z,99635.97
2023-03-08T04:56:03.773Z,99625.38
2023-03-08T04:58:33.150Z,99624.50
2023-03-08T05:01:00.931Z,99628.00
2023-03-08T05:03:28.633Z,99623.59
2023-03-08T05:05:57.475Z,99620.97
2023-03-08T05:08:25.188Z,99619.19
2023-03-08T05:11:00.505Z,99616.56
2023-03-08T05:13:30.596Z,99610.38
2023-03-08T05:15:59.665Z,99608.66
2023-03-08T05:18:27.407Z,99613.91
2023-03-08T05:20:56.519Z,99605.09
2023-03-08T05:23:25.121Z,99609.53
2023-03-08T05:25:54.488Z,99602.47
2023-03-08T05:28:22.820Z,99603.34
2023-03-08T05:30:51.166Z,99599.81
2023-03-08T05:33:20.221Z,99585.75
2023-03-08T05:35:54.468Z,99581.34
2023-03-08T05:38:22.581Z,99576.06
2023-03-08T05:40:50.335Z,99569.00
2023-03-08T05:43:18.179Z,99562.84
2023-03-08T05:45:55.715Z,99560.22
2023-03-08T05:48:24.883Z,99550.53
2023-03-08T05:50:53.145Z,99550.53
2023-03-08T05:53:21.438Z,99553.16
2023-03-08T05:55:49.376Z,99544.38
2023-03-08T05:58:17.532Z,99530.28
2023-03-08T06:00:45.301Z,99528.53
2023-03-08T06:03:12.990Z,99527.63
2023-03-08T06:05:42.078Z,99528.53
2023-03-08T06:08:09.726Z,99524.13
2023-03-08T06:10:37.430Z,99523.25
2023-03-08T06:13:05.222Z,99518.84
2023-03-08T06:15:32.923Z,99508.28
2023-03-08T06:18:00.610Z,99507.41
2023-03-08T06:20:28.367Z,99496.84
2023-03-08T06:22:57.397Z,99496.84
2023-03-08T06:25:25.168Z,99494.19
2023-03-08T06:27:52.828Z,99483.63
2023-03-08T06:30:20.595Z,99468.69
2023-03-08T06:32:48.313Z,99469.53
2023-03-08T06:35:16.074Z,99477.47
2023-03-08T06:37:43.772Z,99473.06
2023-03-08T06:40:14.244Z,99461.63
2023-03-08T06:42:42.107Z,99471.28
2023-03-08T06:45:11.537Z,99461.63
2023-03-08T06:47:39.260Z,99457.22
2023-03-08T06:50:07.282Z,99453.72
2023-03-08T06:52:37.768Z,99455.47
2023-03-08T06:55:06.063Z,99453.69
2023-03-08T06:57:35.120Z,99461.66
2023-03-08T07:00:04.018Z,99458.09
2023-03-08T07:02:31.651Z,99470.44
2023-03-08T07:04:59.374Z,99460.75
2023-03-08T07:07:27.063Z,99454.59
2023-03-08T07:09:54.852Z,99450.16
2023-03-08T07:12:22.625Z,99456.34
2023-03-08T07:14:53.302Z,99453.72
2023-03-08T07:17:21.105Z,99445.81
2023-03-08T07:19:48.861Z,99444.91
2023-03-08T07:22:16.639Z,99446.69
2023-03-08T07:24:44.408Z,99450.19
2023-03-08T07:27:13.361Z,99446.69
2023-03-08T07:29:41.060Z,99450.19
2023-03-08T07:32:10.325Z,99451.06
2023-03-08T07:34:38.422Z,99439.63
2023-03-08T07:37:07.451Z,99451.94
2023-03-08T07:39:35.175Z,99444.91
2023-03-08T07:42:02.988Z,99445.78
2023-03-08T07:44:30.800Z,99445.78
2023-03-08T07:46:58.567Z,99444.91
2023-03-08T07:49:27.663Z,99440.50
2023-03-08T07:51:55.914Z,99432.59
2023-03-08T07:54:29.341Z,99428.19
2023-03-08T07:56:57.338Z,99413.22
2023-03-08T07:59:25.525Z,99418.53
2023-03-08T08:01:53.231Z,99425.56
2023-03-08T08:04:23.174Z,99416.75
2023-03-08T08:06:52.450Z,99412.38
2023-03-08T08:09:20.216Z,99409.72
2023-03-08T08:11:48.183Z,99403.56
2023-03-08T08:14:15.949Z,99393.88
2023-03-08T08:16:43.786Z,99392.13
2023-03-08T08:19:12.323Z,99394.78
2023-03-08T08:21:40.063Z,99391.25
2023-03-08T08:24:09.918Z,99382.47
2023-03-08T08:26:37.748Z,99373.63
2023-03-08T08:29:05.531Z,99369.28
2023-03-08T08:31:33.371Z,99360.44
2023-03-08T08:34:01.641Z,99367.47
2023-03-08T08:36:30.498Z,99360.44
2023-03-08T08:38:59.597Z,99358.69
2023-03-08T08:41:29.653Z,99356.03
2023-03-08T08:43:59.053Z,99343.72
2023-03-08T08:46:28.537Z,99341.09
2023-03-08T08:48:56.829Z,99341.97
2023-03-08T08:51:24.546Z,99345.50
2023-03-08T08:53:52.617Z,99341.09
2023-03-08T08:56:29.275Z,99344.63
2023-03-08T08:59:01.269Z,99337.59
2023-03-08T09:01:31.751Z,99330.53
2023-03-08T09:03:59.712Z,99328.78
2023-03-08T09:06:29.280Z,99323.50
2023-03-08T09:08:59.204Z,99320.00
2023-03-08T09:11:29.026Z,99314.75
2023-03-08T09:13:58.241Z,99311.25
2023-03-08T09:16:27.464Z,99300.66
2023-03-08T09:18:56.387Z,99294.53
2023-03-08T09:21:24.803Z,99296.28
2023-03-08T09:23:52.597Z,99291.88
2023-03-08T09:26:20.333Z,99305.94
2023-03-08T09:28:48.130Z,99304.16
2023-03-08T09:31:18.973Z,99291.81
2023-03-08T09:33:48.554Z,99297.09
2023-03-08T09:36:17.193Z,99279.50
2023-03-08T09:38:44.979Z,99275.97
2023-03-08T09:41:26.523Z,99273.34
2023-03-08T09:44:07.084Z,99274.19
2023-03-08T09:46:41.863Z,99268.88
2023-03-08T09:49:18.050Z,99272.41
2023-03-08T09:51:50.303Z,99275.88
2023-03-08T09:54:22.701Z,99274.09
2023-03-08T09:56:51.726Z,99277.69
2023-03-08T09:59:25.614Z,99272.38
2023-03-08T10:02:01.993Z,99279.41
2023-03-08T10:04:40.826Z,99285.50
2023-03-08T10:07:20.848Z,99273.22
2023-03-08T10:09:56.531Z,99271.41
2023-03-08T10:12:31.216Z,99254.66
2023-03-08T10:15:04.365Z,99248.56
2023-03-08T10:17:41.906Z,99244.19
2023-03-08T10:20:20.038Z,99241.50
2023-03-08T10:22:52.683Z,99226.53
2023-03-08T10:25:26.505Z,99218.63
2023-03-08T10:27:56.134Z,99206.31
2023-03-08T10:30:27.402Z,99201.88
2023-03-08T10:33:00.409Z,99193.94
2023-03-08T10:35:37.631Z,99195.69
2023-03-08T10:38:06.562Z,99201.84
2023-03-08T10:40:34.291Z,99206.25
2023-03-08T10:43:05.958Z,99204.50
2023-03-08T10:45:34.306Z,99190.38
2023-03-08T10:48:07.848Z,99200.91
2023-03-08T10:50:37.709Z,99205.34
2023-03-08T10:53:13.582Z,99207.06
2023-03-08T10:55:45.931Z,99207.94
2023-03-08T10:58:33.306Z,99193.91
2023-03-08T11:01:02.988Z,99205.34
2023-03-08T11:03:32.705Z,99213.25
2023-03-08T11:06:01.906Z,99217.63
2023-03-08T11:08:32.260Z,99204.47
2023-03-08T11:11:11.520Z,99202.69
2023-03-08T11:13:41.824Z,99185.16
2023-03-08T11:16:23.399Z,99193.09
2023-03-08T11:19:03.046Z,99196.66
2023-03-08T11:21:38.644Z,99186.88
2023-03-08T11:24:18.535Z,99178.91
2023-03-08T11:26:56.358Z,99181.59
2023-03-08T11:29:37.807Z,99190.41
2023-03-08T11:32:18.199Z,99184.25
2023-03-08T11:35:10.374Z,99193.00
2023-03-08T11:37:45.255Z,99179.75
2023-03-08T11:40:23.019Z,99182.41
2023-03-08T11:42:59.342Z,99188.50
2023-03-08T11:45:32.215Z,99173.59
2023-03-08T11:48:28.707Z,99176.22
2023-03-08T11:51:06.286Z,99170.91
2023-03-08T11:53:47.530Z,99169.06
2023-03-08T11:56:32.600Z,99169.97
2023-03-08T11:59:05.980Z,99169.13
2023-03-08T12:01:45.923Z,99178.00
2023-03-08T12:04:18.457Z,99170.09
2023-03-08T12:06:48.715Z,99183.19
2023-03-08T12:09:23.701Z,99177.00
2023-03-08T12:11:59.202Z,99181.34
2023-03-08T12:14:31.266Z,99177.75
2023-03-08T12:17:06.213Z,99176.91
2023-03-08T12:19:42.017Z,99161.13
2023-03-08T12:22:26.583Z,99156.75
2023-03-08T12:25:00.232Z,99135.56
2023-03-08T12:27:32.000Z,99133.75
2023-03-08T12:30:05.689Z,99139.81
2023-03-08T12:32:37.393Z,99137.19
2023-03-08T12:35:09.032Z,99126.75
2023-03-08T12:37:39.248Z,99119.59
2023-03-08T12:40:27.400Z,99117.06
2023-03-08T12:43:05.437Z,99107.34
2023-03-08T12:45:33.460Z,99109.06
2023-03-08T12:48:14.737Z,99108.94
2023-03-08T12:50:46.149Z,99115.84
2023-03-08T12:53:33.889Z,99110.56
2023-03-08T12:56:04.721Z,99114.16
2023-03-08T12:58:34.361Z,99113.44
2023-03-08T13:01:05.675Z,99110.72
2023-03-08T13:03:39.071Z,99120.44
2023-03-08T13:06:32.870Z,99107.25
2023-03-08T13:09:07.416Z,99113.31
2023-03-08T13:11:40.827Z,99119.44
2023-03-08T13:14:26.184Z,99112.56
2023-03-08T13:16:53.932Z,99109.84
2023-03-08T13:19:28.285Z,99102.00
2023-03-08T13:22:06.860Z,99096.81
2023-03-08T13:24:44.054Z,99101.16
2023-03-08T13:27:33.341Z,99100.19
2023-03-08T13:30:23.735Z,99107.13
2023-03-08T13:32:54.024Z,99112.38
2023-03-08T13:35:23.045Z,99099.16
2023-03-08T13:37:54.895Z,99099.06
2023-03-08T13:40:25.179Z,99097.47
2023-03-08T13:42:57.344Z,99101.78
2023-03-08T13:45:25.708Z,99090.44
2023-03-08T13:48:02.211Z,99083.31
2023-03-08T13:50:33.391Z,99078.84
2023-03-08T13:53:03.609Z,99080.50
2023-03-08T13:55:36.170Z,99082.22
2023-03-08T13:58:04.416Z,99068.84
2023-03-08T14:00:34.266Z,99065.16
2023-03-08T14:03:06.857Z,99068.69
2023-03-08T14:05:41.592Z,99073.22
2023-03-08T14:08:20.463Z,99068.00
2023-03-08T14:10:54.567Z,99056.50
2023-03-08T14:13:27.722Z,99049.44
2023-03-08T14:15:58.917Z,99042.38
2023-03-08T14:18:30.216Z,99047.00
2023-03-08T14:21:03.519Z,99055.81
2023-03-08T14:23:31.777Z,99058.50
2023-03-08T14:26:00.938Z,99062.78
2023-03-08T14:28:40.790Z,99060.22
2023-03-08T14:31:25.831Z,99057.47
2023-03-08T14:33:58.978Z,99063.69
2023-03-08T14:36:27.535Z,99048.69
2023-03-08T14:38:55.434Z,99042.53
2023-03-08T14:41:33.851Z,99036.47
2023-03-08T14:44:02.538Z,99040.81
2023-03-08T14:46:31.154Z,99037.38
2023-03-08T14:49:01.193Z,99031.13
2023-03-08T14:51:31.192Z,99033.69
2023-03-08T14:54:02.006Z,99040.72
2023-03-08T14:56:32.499Z,99030.03
2023-03-08T14:59:01.971Z,99030.16
2023-03-08T15:01:32.192Z,99023.91
2023-03-08T15:04:00.242Z,99029.25
2023-03-08T15:06:31.012Z,99027.56
2023-03-08T15:09:00.901Z,99032.88
2023-03-08T15:11:31.452Z,99038.16
2023-03-08T15:14:00.797Z,99046.84
2023-03-08T15:16:29.014Z,99049.50
2023-03-08T15:18:56.873Z,99050.47
2023-03-08T15:21:29.088Z,99057.59
2023-03-08T15:23:57.412Z,99045.22
2023-03-08T15:26:27.819Z,99038.28
2023-03-08T15:28:55.617Z,99040.88
2023-03-08T15:31:24.931Z,99036.41
2023-03-08T15:33:52.692Z,99044.28
2023-03-08T15:36:20.969Z,99036.44
2023-03-08T15:38:49.431Z,99042.56
2023-03-08T15:41:19.548Z,99048.66
2023-03-08T15:43:47.283Z,99051.25
2023-03-08T15:46:16.462Z,99052.22
2023-03-08T15:48:46.092Z,99049.59
2023-03-08T15:51:19.215Z,99048.72
2023-03-08T15:53:47.156Z,99044.31
2023-03-08T15:56:15.077Z,99041.69
2023-03-08T15:58:42.823Z,99047.81
2023-03-08T16:01:11.879Z,99053.19
2023-03-08T16:03:39.639Z,99048.88
2023-03-08T16:06:11.779Z,99047.06
2023-03-08T16:08:40.927Z,99037.44
2023-03-08T16:11:09.408Z,99028.56
2023-03-08T16:13:37.153Z,99029.66
2023-03-08T16:16:06.783Z,99020.91
2023-03-08T16:18:35.863Z,99025.25
2023-03-08T16:21:08.247Z,99040.25
2023-03-08T16:23:37.431Z,99027.97
2023-03-08T16:26:15.259Z,99025.34
2023-03-08T16:28:45.067Z,99022.72
2023-03-08T16:31:12.957Z,99018.31
2023-03-08T16:33:40.772Z,99026.22
2023-03-08T16:36:08.664Z,99028.81
2023-03-08T16:38:37.827Z,99028.84
2023-03-08T16:41:12.664Z,99035.97
2023-03-08T16:43:46.978Z,99038.63
2023-03-08T16:46:16.539Z,99022.78
2023-03-08T16:48:44.404Z,99028.94
2023-03-08T16:51:15.458Z,99030.72
2023-03-08T16:53:44.750Z,99034.22
2023-03-08T16:56:18.456Z,99036.91
2023-03-08T16:58:46.178Z,99020.19
2023-03-08T17:01:14.830Z,99029.88
2023-03-08T17:03:42.704Z,99014.94
2023-03-08T17:06:12.021Z,99029.06
2023-03-08T17:08:40.220Z,99018.53
2023-03-08T17:11:15.858Z,99014.97
2023-03-08T17:13:43.726Z,99020.31
2023-03-08T17:16:13.100Z,99019.50
2023-03-08T17:18:40.977Z,99018.56
2023-03-08T17:21:09.712Z,99023.81
2023-03-08T17:23:38.021Z,99023.84
2023-03-08T17:26:06.456Z,99027.31
2023-03-08T17:28:36.107Z,99029.97
2023-03-08T17:31:08.782Z,99036.91
2023-03-08T17:33:36.817Z,99033.38
2023-03-08T17:36:06.126Z,99030.75
2023-03-08T17:38:34.649Z,99031.63
2023-03-08T17:41:05.758Z,99031.59
2023-03-08T17:43:35.195Z,99032.53
2023-03-08T17:46:04.745Z,99029.94
2023-03-08T17:48:33.466Z,99026.44
2023-03-08T17:51:04.717Z,99029.09
2023-03-08T17:53:33.286Z,99026.53
2023-03-08T17:56:01.837Z,99022.97
2023-03-08T17:58:29.924Z,99021.22
2023-03-08T18:00:59.020Z,99016.91
2023-03-08T18:03:26.673Z,99026.53
2023-03-08T18:05:54.644Z,99023.03
2023-03-08T18:08:22.291Z,99026.59
2023-03-08T18:10:50.600Z,99029.25
2023-03-08T18:13:18.301Z,99022.22
2023-03-08T18:15:46.030Z,99019.59
2023-03-08T18:18:15.141Z,99021.41
2023-03-08T18:20:42.934Z,99031.16
2023-03-08T18:23:10.770Z,99025.00
2023-03-08T18:25:39.489Z,99028.50
2023-03-08T18:28:10.186Z,99023.28
2023-03-08T18:30:39.208Z,99024.13
2023-03-08T18:33:06.916Z,99039.91
2023-03-08T18:35:36.066Z,99025.75
2023-03-08T18:38:03.948Z,99008.16
2023-03-08T18:40:31.684Z,99009.94
2023-03-08T18:42:59.383Z,99008.22
2023-03-08T18:45:28.447Z,99014.44
2023-03-08T18:47:56.783Z,99007.38
2023-03-08T18:50:25.208Z,99011.81
2023-03-08T18:52:54.302Z,99002.19
2023-03-08T18:55:21.939Z,99000.44
2023-03-08T18:57:49.695Z,98982.00
2023-03-08T19:00:18.375Z,98981.94
2023-03-08T19:02:46.024Z,98982.91
2023-03-08T19:05:13.767Z,98982.97
2023-03-08T19:07:41.985Z,98985.53
2023-03-08T19:10:14.737Z,98977.59
2023-03-08T19:12:43.791Z,98979.34
2023-03-08T19:15:12.456Z,98978.38
2023-03-08T19:17:40.152Z,98984.56
2023-03-08T19:20:09.610Z,98987.19
2023-03-08T19:22:38.012Z,98981.91
2023-03-08T19:25:06.382Z,98983.63
2023-03-08T19:27:35.820Z,98984.53
2023-03-08T19:30:03.613Z,98980.13
2023-03-08T19:32:31.460Z,98973.03
2023-03-08T19:34:59.265Z,98967.78
2023-03-08T19:37:27.060Z,98972.19
2023-03-08T19:39:54.885Z,98969.53
2023-03-08T19:42:23.176Z,98966.91
2023-03-08T19:44:52.714Z,98978.34
2023-03-08T19:47:21.113Z,98979.19
2023-03-08T19:49:49.532Z,98988.00
2023-03-08T19:52:17.329Z,98988.03
2023-03-08T19:54:46.102Z,98973.16
2023-03-08T19:57:14.012Z,98979.34
2023-03-08T19:59:41.736Z,98967.88
2023-03-08T20:02:13.696Z,98968.78
2023-03-08T20:04:41.420Z,98960.91
2023-03-08T20:07:09.442Z,98962.66
2023-03-08T20:09:37.147Z,98958.25
2023-03-08T20:12:05.088Z,98959.94
2023-03-08T20:14:32.820Z,98965.25
2023-03-08T20:17:01.783Z,98953.84
2023-03-08T20:19:31.896Z,98962.72
2023-03-08T20:21:59.807Z,98967.13
2023-03-08T20:24:27.645Z,98978.56
2023-03-08T20:26:55.452Z,98976.75
2023-03-08T20:29:23.619Z,98983.78
2023-03-08T20:31:51.336Z,98989.00
2023-03-08T20:34:19.848Z,98971.44
2023-03-08T20:36:48.950Z,98972.25
2023-03-08T20:39:18.307Z,98962.66
2023-03-08T20:41:46.079Z,98952.16
2023-03-08T20:44:13.794Z,98947.78
2023-03-08T20:46:44.446Z,98947.78
2023-03-08T20:49:12.413Z,98961.91
2023-03-08T20:51:40.147Z,98964.56
2023-03-08T20:54:11.872Z,98961.03
2023-03-08T20:56:39.786Z,98965.47
2023-03-08T20:59:07.457Z,98961.94
2023-03-08T21:01:41.202Z,98960.13
2023-03-08T21:04:08.896Z,98958.38
2023-03-08T21:06:42.038Z,98953.09
2023-03-08T21:09:12.342Z,98948.75
2023-03-08T21:11:40.857Z,98954.97
2023-03-08T21:14:13.120Z,98954.97
2023-03-08T21:16:43.774Z,98952.25
2023-03-08T21:19:14.969Z,98947.00
2023-03-08T21:21:51.581Z,98942.53
2023-03-08T21:24:24.160Z,98942.53
2023-03-08T21:26:52.987Z,98933.75
2023-03-08T21:29:21.939Z,98933.75
2023-03-08T21:31:51.489Z,98933.81
2023-03-08T21:34:20.003Z,98928.53
2023-03-08T21:36:48.075Z,98927.66
2023-03-08T21:39:15.983Z,98919.75
2023-03-08T21:41:47.695Z,98917.09
2023-03-08T21:44:18.790Z,98917.06
2023-03-08T21:46:47.468Z,98919.69
2023-03-08T21:49:17.725Z,98913.47
2023-03-08T21:51:45.669Z,98912.59
2023-03-08T21:54:13.509Z,98900.28
2023-03-08T21:56:41.319Z,98900.31
2023-03-08T21:59:10.718Z,98896.78
2023-03-08T22:01:38.510Z,98892.41
2023-03-08T22:04:07.426Z,98885.31
2023-03-08T22:06:35.113Z,98882.78
2023-03-08T22:09:03.909Z,98880.09
2023-03-08T22:11:31.886Z,98889.75
2023-03-08T22:14:01.325Z,98878.25
2023-03-08T22:16:32.132Z,98865.88
2023-03-08T22:19:02.221Z,98873.75
2023-03-08T22:21:30.740Z,98869.34
2023-03-08T22:24:00.726Z,98860.53
2023-03-08T22:26:30.238Z,98857.00
2023-03-08T22:28:58.633Z,98849.94
2023-03-08T22:31:28.140Z,98851.81
2023-03-08T22:33:57.345Z,98851.84
2023-03-08T22:36:25.402Z,98855.34
2023-03-08T22:38:53.070Z,98847.50
2023-03-08T22:41:23.286Z,98842.25
2023-03-08T22:43:51.992Z,98839.59
2023-03-08T22:46:21.410Z,98836.03
2023-03-08T22:48:49.788Z,98832.56
2023-03-08T22:51:20.864Z,98821.13
2023-03-08T22:53:48.775Z,98827.38
2023-03-08T22:56:23.255Z,98833.50
2023-03-08T22:58:51.360Z,98831.75
2023-03-08T23:01:21.756Z,98834.47
2023-03-08T23:03:49.949Z,98846.78
2023-03-08T23:06:19.376Z,98842.34
2023-03-08T23:08:47.448Z,98837.94
2023-03-08T23:11:15.534Z,98837.06
2023-03-08T23:13:43.321Z,98820.31
2023-03-08T23:16:13.723Z,98830.88
2023-03-08T23:18:41.640Z,98832.66
2023-03-08T23:21:11.185Z,98831.75
2023-03-08T23:23:40.802Z,98818.50
2023-03-08T23:26:12.049Z,98818.47
2023-03-08T23:28:39.781Z,98816.69
2023-03-08T23:31:11.000Z,98820.19
2023-03-08T23:33:39.011Z,98808.75
2023-03-08T23:36:07.904Z,98807.00
2023-03-08T23:38:35.702Z,98802.72
2023-03-08T23:41:06.877Z,98800.06
2023-03-08T23:43:35.268Z,98807.16
2023-03-08T23:46:06.702Z,98808.88
2023-03-08T23:48:34.478Z,98833.44
2023-03-08T23:51:04.130Z,98844.03
2023-03-08T23:53:31.919Z,98823.78
2023-03-08T23:55:59.855Z,98827.25
2023-03-08T23:58:29.335Z,98826.34
